Logo Frankfurt-Egelsbach Airport
Hessische Flugplatz GmbH Egelsbach
Telefon : +49 (0)6103-9418-0
E-Mail : fly@egelsbach-airport.com
   

 

 

 

 

 

 

Aktuelle Daten

Öffnungszeiten: 0800 LT - SS+30 (max 2100 LT)

PPR: 0700 LT - 0800 LT, SS+30 - 2100 LT Tel +49 6103 9418-0

Behördlich vorgeschriebenes Briefing für NVFR-Anflüge mit HPA
für die Saison 2014/2015

» Behördlich vorgeschriebenes Briefing für NVFR-Anflüge mit HPA für die Saison 2014/2015

 

Webcam

Webcam

Wetterdaten

Beobachtung von : 07-JUL-2015 - 17:45 UTC
Sonnenaufgang : 03:25 UTC
Sonnenuntergang : 19:36 UTC
Sicht : ausgefallen
Wolkenuntergrenze : nicht feststellbar
Wind : 310 / 5 kt
Wind extrem (10 min) : 280-330 / 4-11 kt
Temperatur : 25.3° Celsius
Taupunkt : 18.9° Celsius
QNH : 1007.5 hPa
Dichtehöhe : 1870 ft

Daten werden automatisch generiert. Verfügbarkeit und Richtigkeit ohne Gewähr.
Mit freundlicher Unterstützung des Deutschen Wetterdienstes

Metar


799
SADL31 EDFE 071720
METAR EDFE 071720Z 15004KT 9999 FEW030CB SCT085 25/20 Q1006=

Notam

E1606/15 - MOBILE CRANE 220M N OF THR 26, PSN 495747N 0083852E. ELEV 505FT/125FT AGL. DAY AND NIGHT MARKED. 02 JUN 14:58 2015 UNTIL 02 SEP 23:59 2015 ESTIMATED.

E1604/15 - CRANE APRX 150M N OF THR 26, PSN 495747N 0083852E. ELEV 502FT/114FT AGL. DAY AND NIGHT MARKED. 02 JUN 14:38 2015 UNTIL 02 SEP 12:00 2015 ESTIMATED.